createdAt,value
2022-11-14T00:02:43.502Z,95.88
2022-11-14T00:05:29.709Z,95.59
2022-11-14T00:08:20.967Z,95.60
2022-11-14T00:11:06.851Z,95.25
2022-11-14T00:13:53.029Z,95.21
2022-11-14T00:16:40.065Z,95.11
2022-11-14T00:19:25.826Z,94.29
2022-11-14T00:22:11.993Z,93.86
2022-11-14T00:24:58.119Z,94.10
2022-11-14T00:27:43.952Z,94.30
2022-11-14T00:30:30.281Z,94.48
2022-11-14T00:33:20.690Z,94.00
2022-11-14T00:36:07.656Z,94.36
2022-11-14T00:38:55.226Z,94.18
2022-11-14T00:41:41.849Z,94.21
2022-11-14T00:44:27.521Z,94.46
2022-11-14T00:47:13.657Z,94.45
2022-11-14T00:49:59.594Z,93.79
2022-11-14T00:52:45.661Z,93.99
2022-11-14T00:55:31.691Z,93.66
2022-11-14T00:58:17.393Z,94.35
2022-11-14T01:01:03.164Z,93.90
2022-11-14T01:03:52.687Z,93.81
2022-11-14T01:06:38.546Z,94.45
2022-11-14T01:09:24.555Z,94.44
2022-11-14T01:12:10.448Z,93.96
2022-11-14T01:14:56.506Z,94.41
2022-11-14T01:17:42.638Z,94.14
2022-11-14T01:20:28.495Z,94.03
2022-11-14T01:23:16.328Z,94.50
2022-11-14T01:26:07.875Z,94.86
2022-11-14T01:28:54.136Z,94.99
2022-11-14T01:31:39.907Z,94.98
2022-11-14T01:34:26.819Z,95.02
2022-11-14T01:37:12.848Z,95.33
2022-11-14T01:39:58.620Z,95.08
2022-11-14T01:43:19.452Z,95.73
2022-11-14T01:46:30.886Z,95.71
2022-11-14T01:49:16.664Z,95.60
2022-11-14T01:52:06.791Z,95.64
2022-11-14T01:54:55.636Z,95.63
2022-11-14T01:57:46.578Z,95.80
2022-11-14T02:00:32.348Z,96.09
2022-11-14T02:03:19.232Z,96.69
2022-11-14T02:06:06.880Z,96.18
2022-11-14T02:08:54.108Z,96.85
2022-11-14T02:11:46.329Z,96.93
2022-11-14T02:14:35.233Z,96.39
2022-11-14T02:17:29.522Z,96.30
2022-11-14T02:20:23.207Z,96.77
2022-11-14T02:23:12.689Z,96.76
2022-11-14T02:25:59.355Z,96.49
2022-11-14T02:28:45.156Z,97.00
2022-11-14T02:31:31.039Z,97.01
2022-11-14T02:34:20.230Z,96.97
2022-11-14T02:37:06.965Z,96.56
2022-11-14T02:39:53.009Z,97.48
2022-11-14T02:42:38.777Z,97.41
2022-11-14T02:45:25.186Z,97.08
2022-11-14T02:48:10.943Z,96.57
2022-11-14T02:50:56.927Z,97.39
2022-11-14T02:53:43.112Z,97.00
2022-11-14T02:56:28.814Z,97.76
2022-11-14T02:59:14.746Z,97.53
2022-11-14T03:02:02.904Z,97.28
2022-11-14T03:04:48.845Z,97.52
2022-11-14T03:07:34.595Z,97.43
2022-11-14T03:10:22.088Z,97.44
2022-11-14T03:13:07.920Z,97.24
2022-11-14T03:15:53.788Z,98.04
2022-11-14T03:18:39.901Z,97.90
2022-11-14T03:21:25.807Z,97.33
2022-11-14T03:24:11.599Z,97.29
2022-11-14T03:26:57.464Z,97.68
2022-11-14T03:29:42.961Z,97.80
2022-11-14T03:32:28.577Z,97.51
2022-11-14T03:35:14.210Z,97.45
2022-11-14T03:38:00.095Z,97.28
2022-11-14T03:40:45.940Z,97.38
2022-11-14T03:43:34.165Z,97.50
2022-11-14T03:46:20.514Z,97.76
2022-11-14T03:49:06.300Z,97.11
2022-11-14T03:51:52.310Z,97.44
2022-11-14T03:54:38.709Z,97.96
2022-11-14T03:57:24.624Z,98.23
2022-11-14T04:00:10.979Z,97.66
2022-11-14T04:02:57.858Z,97.97
2022-11-14T04:05:46.576Z,98.03
2022-11-14T04:08:33.282Z,97.58
2022-11-14T04:11:20.109Z,98.06
2022-11-14T04:14:05.885Z,97.80
2022-11-14T04:16:51.823Z,98.04
2022-11-14T04:19:37.965Z,98.24
2022-11-14T04:22:23.967Z,97.96
2022-11-14T04:25:10.374Z,98.04
2022-11-14T04:27:56.553Z,97.94
2022-11-14T04:30:42.700Z,97.77
2022-11-14T04:33:28.456Z,98.07
2022-11-14T04:36:14.245Z,97.75
2022-11-14T04:39:00.177Z,98.76
2022-11-14T04:41:46.090Z,98.00
2022-11-14T04:44:31.828Z,97.95
2022-11-14T04:47:18.158Z,98.39
2022-11-14T04:50:04.483Z,98.58
2022-11-14T04:52:54.099Z,97.97
2022-11-14T04:55:40.153Z,98.24
2022-11-14T04:58:26.888Z,98.28
2022-11-14T05:01:14.893Z,98.42
2022-11-14T05:04:00.968Z,98.17
2022-11-14T05:06:47.354Z,97.97
2022-11-14T05:09:33.022Z,98.29
2022-11-14T05:12:19.036Z,98.59
2022-11-14T05:15:05.316Z,98.68
2022-11-14T05:17:51.030Z,98.40
2022-11-14T05:20:37.136Z,98.65
2022-11-14T05:23:24.613Z,98.95
2022-11-14T05:26:12.916Z,98.99
2022-11-14T05:28:59.190Z,98.79
2022-11-14T05:31:45.028Z,98.83
2022-11-14T05:34:31.019Z,98.90
2022-11-14T05:37:16.903Z,98.64
2022-11-14T05:40:04.751Z,98.13
2022-11-14T05:42:50.491Z,98.02
2022-11-14T05:45:36.409Z,98.19
2022-11-14T05:48:22.213Z,98.10
2022-11-14T05:51:11.932Z,98.05
2022-11-14T05:53:58.134Z,98.09
2022-11-14T05:56:43.972Z,98.09
2022-11-14T05:59:29.818Z,98.89
2022-11-14T06:02:15.621Z,97.83
2022-11-14T06:05:01.422Z,97.90
2022-11-14T06:07:47.412Z,98.68
2022-11-14T06:10:35.824Z,98.15
2022-11-14T06:13:21.746Z,98.35
2022-11-14T06:16:11.345Z,98.07
2022-11-14T06:18:57.555Z,98.12
2022-11-14T06:21:43.525Z,98.39
2022-11-14T06:24:29.462Z,98.42
2022-11-14T06:27:15.226Z,98.16
2022-11-14T06:30:01.078Z,98.14
2022-11-14T06:32:47.297Z,98.66
2022-11-14T06:35:33.590Z,98.41
2022-11-14T06:38:19.664Z,98.59
2022-11-14T06:41:08.437Z,98.12
2022-11-14T06:43:55.154Z,98.85
2022-11-14T06:46:41.142Z,98.60
2022-11-14T06:49:28.070Z,98.71
2022-11-14T06:52:14.143Z,98.62
2022-11-14T06:55:00.350Z,97.95
2022-11-14T06:57:46.159Z,98.14
2022-11-14T07:00:32.342Z,98.51
2022-11-14T07:03:18.264Z,98.26
2022-11-14T07:06:05.509Z,97.98
2022-11-14T07:08:52.738Z,98.31
2022-11-14T07:11:38.505Z,97.84
2022-11-14T07:14:24.616Z,98.13
2022-11-14T07:17:10.359Z,98.17
2022-11-14T07:19:56.316Z,98.11
2022-11-14T07:22:42.399Z,98.09
2022-11-14T07:25:28.264Z,97.83
2022-11-14T07:28:14.106Z,97.62
2022-11-14T07:31:00.082Z,97.80
2022-11-14T07:33:46.198Z,98.55
2022-11-14T07:36:32.173Z,98.35
2022-11-14T07:39:18.124Z,98.42
2022-11-14T07:42:04.364Z,98.68
2022-11-14T07:44:50.526Z,98.38
2022-11-14T07:47:36.109Z,98.00
2022-11-14T07:50:21.894Z,97.91
2022-11-14T07:53:08.031Z,98.21
2022-11-14T07:55:53.659Z,97.58
2022-11-14T07:58:41.448Z,98.10
2022-11-14T08:01:28.066Z,98.42
2022-11-14T08:04:14.223Z,97.54
2022-11-14T08:07:00.321Z,98.27
2022-11-14T08:09:46.993Z,98.10
2022-11-14T08:12:33.713Z,97.85
2022-11-14T08:15:19.713Z,98.56
2022-11-14T08:18:06.154Z,98.09
2022-11-14T08:20:53.263Z,98.19
2022-11-14T08:23:39.835Z,97.61
2022-11-14T08:26:28.910Z,98.36
2022-11-14T08:29:17.555Z,98.35
2022-11-14T08:32:03.732Z,98.09
2022-11-14T08:34:50.092Z,98.36
2022-11-14T08:37:36.403Z,97.77
2022-11-14T08:40:23.433Z,98.04
2022-11-14T08:43:11.701Z,98.23
2022-11-14T08:46:03.143Z,97.91
2022-11-14T08:48:49.723Z,97.14
2022-11-14T08:51:36.631Z,97.73
2022-11-14T08:54:23.162Z,97.01
2022-11-14T08:57:09.613Z,96.72
2022-11-14T08:59:56.523Z,96.64
2022-11-14T09:02:42.922Z,96.82
2022-11-14T09:05:29.452Z,96.65
2022-11-14T09:08:16.961Z,96.22
2022-11-14T09:11:09.958Z,96.19
2022-11-14T09:13:56.583Z,95.63
2022-11-14T09:16:43.315Z,95.67
2022-11-14T09:19:29.732Z,96.00
2022-11-14T09:22:16.422Z,95.70
2022-11-14T09:25:03.778Z,94.69
2022-11-14T09:27:50.603Z,94.89
2022-11-14T09:30:37.913Z,94.39
2022-11-14T09:33:24.402Z,94.65
2022-11-14T09:36:16.253Z,94.67
2022-11-14T09:39:02.831Z,94.68
2022-11-14T09:41:57.922Z,93.93
2022-11-14T09:45:03.482Z,93.71
2022-11-14T09:47:55.152Z,93.68
2022-11-14T09:50:48.983Z,93.72
2022-11-14T09:53:45.771Z,93.22
2022-11-14T09:56:31.435Z,93.15
2022-11-14T09:59:17.696Z,93.22
2022-11-14T10:02:54.664Z,92.80
2022-11-14T10:05:40.571Z,93.29
2022-11-14T10:09:05.198Z,92.94
2022-11-14T10:12:16.640Z,94.23
2022-11-14T10:15:34.087Z,93.90
2022-11-14T10:18:43.976Z,93.37
2022-11-14T10:21:57.386Z,93.53
2022-11-14T10:24:51.230Z,93.62
2022-11-14T10:28:03.859Z,93.37
2022-11-14T10:31:24.594Z,92.63
2022-11-14T10:34:59.424Z,92.87
2022-11-14T10:37:57.724Z,92.23
2022-11-14T10:40:47.848Z,93.14
2022-11-14T10:43:42.394Z,92.68
2022-11-14T10:46:40.708Z,93.15
2022-11-14T10:49:27.058Z,93.46
2022-11-14T10:52:22.929Z,92.82
2022-11-14T10:55:17.898Z,93.37
2022-11-14T10:58:11.011Z,92.91
2022-11-14T11:00:57.012Z,93.39
2022-11-14T11:03:44.785Z,93.13
2022-11-14T11:06:30.518Z,92.87
2022-11-14T11:09:47.305Z,92.80
2022-11-14T11:13:05.661Z,92.95
2022-11-14T11:15:58.279Z,93.00
2022-11-14T11:18:47.308Z,93.71
2022-11-14T11:21:48.850Z,93.58
2022-11-14T11:24:38.477Z,92.95
2022-11-14T11:27:27.292Z,93.80
2022-11-14T11:30:23.469Z,93.45
2022-11-14T11:33:32.419Z,93.16
2022-11-14T11:36:20.826Z,92.45
2022-11-14T11:39:09.931Z,93.24
2022-11-14T11:42:14.016Z,92.57
2022-11-14T11:45:02.849Z,92.24
2022-11-14T11:48:22.852Z,92.32
2022-11-14T11:51:17.430Z,91.66
2022-11-14T11:54:21.076Z,91.89
2022-11-14T11:57:21.162Z,91.28
2022-11-14T12:00:16.537Z,91.68
2022-11-14T12:03:02.686Z,91.67
2022-11-14T12:05:57.374Z,91.67
2022-11-14T12:09:04.085Z,91.43
2022-11-14T12:12:01.702Z,91.12
2022-11-14T12:15:33.975Z,90.88
2022-11-14T12:18:41.350Z,91.00
2022-11-14T12:21:39.176Z,90.67
2022-11-14T12:24:25.053Z,90.26
2022-11-14T12:27:25.554Z,90.91
2022-11-14T12:30:22.090Z,90.48
2022-11-14T12:33:16.521Z,90.80
2022-11-14T12:36:06.691Z,90.75
2022-11-14T12:38:54.956Z,91.28
2022-11-14T12:41:42.052Z,90.81
2022-11-14T12:44:27.652Z,90.94
2022-11-14T12:47:17.284Z,91.16
2022-11-14T12:50:06.477Z,91.11
2022-11-14T12:52:55.090Z,91.45
2022-11-14T12:55:46.835Z,91.58
2022-11-14T12:58:47.349Z,91.86
2022-11-14T13:01:48.289Z,91.56
2022-11-14T13:04:43.168Z,92.06
2022-11-14T13:07:41.608Z,91.67
2022-11-14T13:10:33.450Z,92.28
2022-11-14T13:13:38.105Z,92.57
2022-11-14T13:16:45.063Z,92.47
2022-11-14T13:19:49.359Z,92.20
2022-11-14T13:22:45.124Z,92.24
2022-11-14T13:25:31.490Z,91.72
2022-11-14T13:28:38.914Z,91.88
2022-11-14T13:31:34.046Z,92.36
2022-11-14T13:34:45.197Z,92.12
2022-11-14T13:37:59.474Z,92.86
2022-11-14T13:41:07.316Z,93.27
2022-11-14T13:44:11.598Z,93.57
2022-11-14T13:47:03.966Z,93.99
2022-11-14T13:50:11.515Z,93.96
2022-11-14T13:52:57.913Z,93.85
2022-11-14T13:55:59.570Z,94.33
2022-11-14T13:59:10.513Z,94.15
2022-11-14T14:02:11.424Z,94.00
2022-11-14T14:05:02.754Z,94.07
2022-11-14T14:08:06.907Z,94.10
2022-11-14T14:11:42.743Z,94.91
2022-11-14T14:15:00.035Z,94.54
2022-11-14T14:18:02.239Z,94.93
2022-11-14T14:21:11.447Z,94.61
2022-11-14T14:24:04.191Z,94.62
2022-11-14T14:27:22.366Z,95.11
2022-11-14T14:30:10.525Z,94.49
2022-11-14T14:33:15.624Z,95.11
2022-11-14T14:36:01.855Z,94.45
2022-11-14T14:38:48.762Z,94.84
2022-11-14T14:41:35.811Z,95.42
2022-11-14T14:44:31.935Z,94.93
2022-11-14T14:47:35.740Z,94.87
2022-11-14T14:50:27.031Z,95.65
2022-11-14T14:53:28.448Z,95.61
2022-11-14T14:56:25.152Z,95.18
2022-11-14T14:59:23.788Z,94.96
2022-11-14T15:02:16.748Z,95.60
2022-11-14T15:05:03.155Z,95.45
2022-11-14T15:07:50.372Z,95.22
2022-11-14T15:10:37.329Z,95.30
2022-11-14T15:13:25.577Z,96.09
2022-11-14T15:16:12.113Z,96.28
2022-11-14T15:18:59.825Z,96.05
2022-11-14T15:21:45.974Z,95.98
2022-11-14T15:24:32.218Z,96.01
2022-11-14T15:27:20.781Z,96.43
2022-11-14T15:30:19.968Z,96.63
2022-11-14T15:33:07.432Z,96.30
2022-11-14T15:36:14.401Z,96.01
2022-11-14T15:39:22.100Z,95.90
2022-11-14T15:42:15.449Z,96.09
2022-11-14T15:45:01.225Z,96.81
2022-11-14T15:47:47.504Z,96.88
2022-11-14T15:50:35.531Z,96.86
2022-11-14T15:53:23.887Z,96.58
2022-11-14T15:56:16.190Z,96.80
2022-11-14T15:59:01.897Z,96.17
2022-11-14T16:01:55.225Z,96.86
2022-11-14T16:04:47.103Z,97.17
2022-11-14T16:07:33.581Z,96.47
2022-11-14T16:10:23.406Z,96.87
2022-11-14T16:13:11.360Z,96.79
2022-11-14T16:15:57.307Z,97.08
2022-11-14T16:18:43.012Z,97.56
2022-11-14T16:21:28.832Z,97.33
2022-11-14T16:24:23.162Z,97.31
2022-11-14T16:27:09.894Z,97.19
2022-11-14T16:29:55.610Z,97.11
2022-11-14T16:32:46.533Z,96.87
2022-11-14T16:35:32.357Z,96.61
2022-11-14T16:38:17.957Z,97.06
2022-11-14T16:41:08.355Z,96.67
2022-11-14T16:43:58.134Z,97.05
2022-11-14T16:46:45.774Z,97.19
2022-11-14T16:49:31.509Z,97.15
2022-11-14T16:52:17.701Z,96.77
2022-11-14T16:55:03.697Z,97.58
2022-11-14T16:57:49.683Z,97.35
2022-11-14T17:00:36.091Z,98.04
2022-11-14T17:03:22.626Z,97.92
2022-11-14T17:06:10.805Z,98.00
2022-11-14T17:08:58.094Z,97.26
2022-11-14T17:11:44.886Z,97.23
2022-11-14T17:14:31.529Z,97.49
2022-11-14T17:17:17.361Z,97.70
2022-11-14T17:20:03.526Z,97.95
2022-11-14T17:22:49.456Z,97.71
2022-11-14T17:25:35.540Z,97.52
2022-11-14T17:28:22.015Z,97.40
2022-11-14T17:31:09.172Z,97.29
2022-11-14T17:33:57.186Z,98.00
2022-11-14T17:36:43.446Z,97.55
2022-11-14T17:39:30.326Z,97.27
2022-11-14T17:42:17.055Z,97.56
2022-11-14T17:45:03.664Z,97.45
2022-11-14T17:47:49.893Z,97.86
2022-11-14T17:50:40.659Z,97.35
2022-11-14T17:53:27.593Z,98.16
2022-11-14T17:56:19.936Z,98.36
2022-11-14T17:59:06.397Z,98.34
2022-11-14T18:01:55.413Z,98.37
2022-11-14T18:04:41.864Z,98.42
2022-11-14T18:07:31.001Z,98.06
2022-11-14T18:10:18.174Z,98.18
2022-11-14T18:13:05.679Z,97.44
2022-11-14T18:15:51.754Z,98.10
2022-11-14T18:18:38.783Z,98.01
2022-11-14T18:21:26.088Z,97.53
2022-11-14T18:24:15.633Z,97.65
2022-11-14T18:27:02.624Z,98.27
2022-11-14T18:29:49.232Z,97.49
2022-11-14T18:32:35.933Z,97.75
2022-11-14T18:35:22.284Z,97.35
2022-11-14T18:38:08.833Z,97.12
2022-11-14T18:40:57.483Z,97.25
2022-11-14T18:43:47.825Z,97.53
2022-11-14T18:46:37.391Z,97.36
2022-11-14T18:49:24.290Z,97.68
2022-11-14T18:52:16.939Z,97.59
2022-11-14T18:55:05.702Z,97.60
2022-11-14T18:57:53.297Z,97.97
2022-11-14T19:00:39.693Z,98.13
2022-11-14T19:03:26.324Z,98.38
2022-11-14T19:06:13.805Z,98.19
2022-11-14T19:09:05.591Z,97.75
2022-11-14T19:12:26.973Z,98.35
2022-11-14T19:15:13.903Z,98.12
2022-11-14T19:18:00.365Z,98.16
2022-11-14T19:20:58.192Z,98.22
2022-11-14T19:23:44.914Z,98.41
2022-11-14T19:26:31.793Z,98.66
2022-11-14T19:29:18.338Z,98.84
2022-11-14T19:32:06.044Z,98.13
2022-11-14T19:34:52.353Z,98.34
2022-11-14T19:37:38.413Z,98.70
2022-11-14T19:40:26.683Z,98.42
2022-11-14T19:43:12.643Z,98.42
2022-11-14T19:46:05.945Z,98.38
2022-11-14T19:49:03.333Z,98.06
2022-11-14T19:51:50.914Z,98.45
2022-11-14T19:54:37.203Z,97.82
2022-11-14T19:57:23.973Z,98.31
2022-11-14T20:00:10.565Z,97.93
2022-11-14T20:02:57.074Z,97.62
2022-11-14T20:05:43.355Z,98.64
2022-11-14T20:08:29.955Z,98.16
2022-11-14T20:11:16.154Z,98.62
2022-11-14T20:14:03.324Z,98.04
2022-11-14T20:16:49.466Z,97.76
2022-11-14T20:19:35.923Z,98.38
2022-11-14T20:22:22.174Z,97.93
2022-11-14T20:25:09.353Z,98.06
2022-11-14T20:27:55.807Z,97.95
2022-11-14T20:30:42.523Z,97.96
2022-11-14T20:33:30.231Z,98.37
2022-11-14T20:36:20.213Z,98.23
2022-11-14T20:39:06.573Z,98.21
2022-11-14T20:41:53.353Z,98.39
2022-11-14T20:44:39.973Z,98.37
2022-11-14T20:47:28.203Z,98.23
2022-11-14T20:50:15.902Z,98.50
2022-11-14T20:53:02.123Z,98.31
2022-11-14T20:55:54.313Z,98.15
2022-11-14T20:58:42.234Z,98.41
2022-11-14T21:01:28.904Z,98.16
2022-11-14T21:04:16.354Z,98.49
2022-11-14T21:07:02.887Z,98.23
2022-11-14T21:09:49.733Z,98.62
2022-11-14T21:12:36.373Z,98.48
2022-11-14T21:15:22.975Z,98.57
2022-11-14T21:18:09.464Z,98.55
2022-11-14T21:21:05.323Z,98.92
2022-11-14T21:23:52.404Z,98.76
2022-11-14T21:26:40.345Z,99.07
2022-11-14T21:29:27.863Z,98.99
2022-11-14T21:32:14.154Z,98.08
2022-11-14T21:35:03.378Z,98.51
2022-11-14T21:37:53.204Z,99.06
2022-11-14T21:40:39.353Z,98.67
2022-11-14T21:43:25.783Z,99.14
2022-11-14T21:46:17.953Z,98.69
2022-11-14T21:49:04.565Z,98.82
2022-11-14T21:51:51.443Z,98.99
2022-11-14T21:54:38.124Z,98.36
2022-11-14T21:57:24.913Z,98.06
2022-11-14T22:00:12.333Z,98.75
2022-11-14T22:03:18.804Z,98.31
2022-11-14T22:06:05.783Z,98.10
2022-11-14T22:08:56.444Z,98.38
2022-11-14T22:11:42.984Z,98.47
2022-11-14T22:14:29.902Z,98.79
2022-11-14T22:17:15.873Z,98.80
2022-11-14T22:20:02.259Z,98.69
2022-11-14T22:22:48.672Z,98.49
2022-11-14T22:25:34.824Z,98.52
2022-11-14T22:28:21.053Z,98.94
2022-11-14T22:31:10.133Z,98.59
2022-11-14T22:33:58.440Z,98.96
2022-11-14T22:36:44.642Z,98.51
2022-11-14T22:39:30.813Z,98.98
2022-11-14T22:42:17.113Z,99.05
2022-11-14T22:45:03.734Z,99.67
2022-11-14T22:47:50.263Z,99.40
2022-11-14T22:50:36.774Z,98.89
2022-11-14T22:53:23.554Z,98.77
2022-11-14T22:56:12.197Z,98.89
2022-11-14T22:59:01.643Z,99.16
2022-11-14T23:01:48.543Z,99.41
2022-11-14T23:04:35.243Z,99.59
2022-11-14T23:07:21.179Z,99.35
2022-11-14T23:10:09.117Z,99.43
2022-11-14T23:12:55.197Z,98.80
2022-11-14T23:15:47.918Z,99.38
2022-11-14T23:18:35.044Z,99.89
2022-11-14T23:21:25.095Z,99.56
2022-11-14T23:24:14.835Z,99.75
2022-11-14T23:27:01.039Z,99.71
2022-11-14T23:29:46.834Z,99.83
2022-11-14T23:32:32.618Z,99.78
2022-11-14T23:35:18.806Z,99.78
2022-11-14T23:38:05.121Z,100.00
2022-11-14T23:40:55.860Z,100.00
2022-11-14T23:43:41.789Z,100.00
2022-11-14T23:46:27.824Z,100.00
2022-11-14T23:49:13.604Z,100.00
2022-11-14T23:51:59.385Z,100.00
2022-11-14T23:54:45.346Z,100.00
2022-11-14T23:57:31.554Z,99.89
